Time;durP1;ratioP1;P1;durP2;ratioP2;P2;SDS_P1;SDS_P2;PMS_P1;PMS_P2;Temp;Humidity;BMP_temperature;BMP_pressure;BME280_temperature;BME280_humidity;BME280_pressure;Samples;Min_cycle;Max_cycle;Signal;HPM_P1;HPM_P2
2023/01/19 00:01:17;;;;;;;;;;;2.70;99.90;;;;;;8390381;28;19968;-74
2023/01/19 00:05:18;;;;;;;;;;;2.70;99.90;;;;;;8405729;28;19934;-74
2023/01/19 00:09:21;;;;;;;;;;;2.70;99.90;;;;;;8374527;28;19946;-74
2023/01/19 00:13:23;;;;;;;;;;;2.70;99.90;;;;;;8394926;28;19924;-73
2023/01/19 00:17:24;;;;;;;;;;;2.70;99.90;;;;;;8389630;28;20318;-73
2023/01/19 00:21:26;;;;;;;;;;;2.70;99.90;;;;;;8387117;28;19982;-73
2023/01/19 00:25:28;;;;;;;;;;;2.70;99.90;;;;;;8395072;28;20023;-73
2023/01/19 00:29:32;;;;;;;;;;;2.70;99.90;;;;;;8379116;28;20027;-74
2023/01/19 00:33:33;;;;;;;;;;;2.70;99.90;;;;;;8364436;28;19967;-73
2023/01/19 00:37:35;;;;;;;;;;;2.70;99.90;;;;;;8378736;28;19931;-74
2023/01/19 00:45:57;;;;;;;;;;;2.80;99.90;;;;;;8379934;28;19931;-74
2023/01/19 00:49:59;;;;;;;;;;;2.80;99.90;;;;;;8386959;28;20039;-73
2023/01/19 00:54:03;;;;;;;;;;;2.80;99.90;;;;;;8398315;28;20006;-73
2023/01/19 00:58:06;;;;;;;;;;;2.80;99.90;;;;;;8385274;28;19924;-74
2023/01/19 01:02:07;;;;;;;;;;;2.80;99.90;;;;;;8389898;28;19931;-74
2023/01/19 01:06:09;;;;;;;;;;;2.80;99.90;;;;;;8395130;28;20287;-73
2023/01/19 01:10:13;;;;;;;;;;;2.80;99.90;;;;;;8394194;28;19925;-73
2023/01/19 01:14:15;;;;;;;;;;;2.80;99.90;;;;;;8398227;28;19925;-74
2023/01/19 01:18:16;;;;;;;;;;;2.80;99.90;;;;;;8402999;28;19947;-73
2023/01/19 01:22:18;;;;;;;;;;;2.80;99.90;;;;;;8400965;28;19947;-73
2023/01/19 01:26:19;;;;;;;;;;;2.60;99.90;;;;;;8411625;28;19925;-74
2023/01/19 01:30:21;;;;;;;;;;;2.50;99.90;;;;;;8418835;28;20000;-74
2023/01/19 01:34:23;;;;;;;;;;;2.50;99.90;;;;;;8380115;28;19931;-74
2023/01/19 01:38:24;;;;;;;;;;;2.40;99.90;;;;;;8409240;28;19924;-74
2023/01/19 01:42:27;;;;;;;;;;;2.30;99.90;;;;;;8385643;28;19928;-74
2023/01/19 01:46:29;;;;;;;;;;;2.30;99.90;;;;;;8385999;28;19924;-74
2023/01/19 01:50:33;;;;;;;;;;;2.30;99.90;;;;;;8403182;28;20225;-73
2023/01/19 01:54:34;;;;;;;;;;;2.40;99.90;;;;;;8397065;28;20027;-74
2023/01/19 01:58:36;;;;;;;;;;;2.50;99.90;;;;;;8395203;28;19940;-74
2023/01/19 02:02:50;;;;;;;;;;;2.50;99.90;;;;;;8403114;28;19932;-74
2023/01/19 02:15:32;;;;;;;;;;;2.80;99.90;;;;;;8399248;28;19938;-74
2023/01/19 02:19:39;;;;;;;;;;;2.90;99.90;;;;;;8390076;28;20383;-74
2023/01/19 02:23:45;;;;;;;;;;;3.00;99.90;;;;;;8389837;28;19925;-74
2023/01/19 02:27:48;;;;;;;;;;;3.10;99.90;;;;;;8369100;28;19949;-74
2023/01/19 02:31:49;;;;;;;;;;;3.20;99.90;;;;;;8386448;28;19931;-74
2023/01/19 02:35:52;;;;;;;;;;;3.30;99.90;;;;;;8390286;28;19972;-73
2023/01/19 02:39:56;;;;;;;;;;;3.20;99.90;;;;;;8395824;28;20379;-74
2023/01/19 02:43:58;;;;;;;;;;;3.10;99.90;;;;;;8368381;28;20026;-74
2023/01/19 02:47:59;;;;;;;;;;;3.10;99.90;;;;;;8391019;28;19924;-74
2023/01/19 02:52:01;;;;;;;;;;;3.10;99.90;;;;;;8401347;28;19924;-74
2023/01/19 02:56:23;;;;;;;;;;;3.00;99.90;;;;;;8381802;28;19936;-74
2023/01/19 03:00:28;;;;;;;;;;;3.10;99.90;;;;;;8404472;28;19924;-74
2023/01/19 03:04:33;;;;;;;;;;;3.00;99.90;;;;;;8390454;28;19924;-73
2023/01/19 03:08:38;;;;;;;;;;;3.00;99.90;;;;;;8385816;28;20005;-74
2023/01/19 03:12:40;;;;;;;;;;;3.00;99.90;;;;;;8416767;28;19924;-74
2023/01/19 03:16:44;;;;;;;;;;;3.00;99.90;;;;;;8400196;28;20027;-74
2023/01/19 03:20:47;;;;;;;;;;;3.00;99.90;;;;;;8364845;28;19924;-74
2023/01/19 03:24:50;;;;;;;;;;;2.90;99.90;;;;;;8392164;28;20008;-74
2023/01/19 03:28:54;;;;;;;;;;;2.90;99.90;;;;;;8372049;28;19968;-74
2023/01/19 03:32:59;;;;;;;;;;;2.70;99.90;;;;;;8381236;28;19928;-74
2023/01/19 03:37:02;;;;;;;;;;;2.60;99.90;;;;;;8373196;28;19932;-74
2023/01/19 03:41:07;;;;;;;;;;;2.60;99.90;;;;;;8390121;28;19932;-74
2023/01/19 03:45:10;;;;;;;;;;;2.50;99.90;;;;;;8388283;28;20010;-74
2023/01/19 03:49:12;;;;;;;;;;;2.40;99.90;;;;;;8384426;28;19947;-74
2023/01/19 03:53:14;;;;;;;;;;;2.30;99.90;;;;;;8384854;28;19952;-74
2023/01/19 03:57:16;;;;;;;;;;;2.30;99.90;;;;;;8387496;28;19932;-74
2023/01/19 04:01:21;;;;;;;;;;;2.20;99.90;;;;;;8391704;28;20464;-74
2023/01/19 04:05:23;;;;;;;;;;;2.20;99.90;;;;;;8391003;28;19929;-74
2023/01/19 04:09:26;;;;;;;;;;;2.10;99.90;;;;;;8390942;28;19961;-74
2023/01/19 04:13:28;;;;;;;;;;;2.10;99.90;;;;;;8390721;28;19968;-74
2023/01/19 04:17:30;;;;;;;;;;;2.10;99.90;;;;;;8380254;28;19925;-74
2023/01/19 04:21:32;;;;;;;;;;;2.00;99.90;;;;;;8395562;28;20386;-74
2023/01/19 04:25:33;;;;;;;;;;;2.00;99.90;;;;;;8370566;28;19925;-74
2023/01/19 04:29:35;;;;;;;;;;;2.00;99.90;;;;;;8388657;28;19933;-74
2023/01/19 04:33:37;;;;;;;;;;;2.00;99.90;;;;;;8388265;28;19928;-74
2023/01/19 04:37:39;;;;;;;;;;;2.00;99.90;;;;;;8387867;28;20299;-74
2023/01/19 04:41:40;;;;;;;;;;;2.00;99.90;;;;;;8388170;28;20296;-74
2023/01/19 04:45:43;;;;;;;;;;;2.00;99.90;;;;;;8376626;28;19925;-74
2023/01/19 04:49:45;;;;;;;;;;;2.00;99.90;;;;;;8374440;28;19931;-74
2023/01/19 04:53:46;;;;;;;;;;;2.10;99.90;;;;;;8374059;28;19931;-74
2023/01/19 04:57:48;;;;;;;;;;;2.10;99.90;;;;;;8360221;28;19924;-74
2023/01/19 05:01:50;;;;;;;;;;;2.10;99.90;;;;;;8378456;28;19929;-74
2023/01/19 05:05:52;;;;;;;;;;;2.20;99.90;;;;;;8359313;28;19924;-74
2023/01/19 05:09:54;;;;;;;;;;;2.20;99.90;;;;;;8399500;28;20301;-74
2023/01/19 05:13:55;;;;;;;;;;;2.20;99.90;;;;;;8388577;28;19956;-74
2023/01/19 05:17:57;;;;;;;;;;;2.20;99.90;;;;;;8372809;28;19924;-74
2023/01/19 05:22:00;;;;;;;;;;;2.20;99.90;;;;;;8406181;28;19970;-74
2023/01/19 05:26:02;;;;;;;;;;;2.30;99.90;;;;;;8395780;28;19959;-74
2023/01/19 05:30:05;;;;;;;;;;;2.20;99.90;;;;;;8373008;28;20359;-74
2023/01/19 05:34:09;;;;;;;;;;;2.30;99.90;;;;;;8386326;28;19931;-74
2023/01/19 05:38:11;;;;;;;;;;;2.30;99.90;;;;;;8372785;28;19931;-74
2023/01/19 05:42:12;;;;;;;;;;;2.40;99.90;;;;;;8397729;28;19963;-74
2023/01/19 05:46:14;;;;;;;;;;;2.40;99.90;;;;;;8381816;28;19971;-74
2023/01/19 05:50:15;;;;;;;;;;;2.50;99.90;;;;;;8401737;28;19952;-74
2023/01/19 05:54:17;;;;;;;;;;;2.50;99.90;;;;;;8396559;28;19939;-74
2023/01/19 05:58:19;;;;;;;;;;;2.50;99.90;;;;;;8387013;28;19932;-74
2023/01/19 06:02:27;;;;;;;;;;;2.50;99.90;;;;;;8390121;28;19925;-74
2023/01/19 06:06:29;;;;;;;;;;;2.60;99.90;;;;;;8383926;28;19931;-74
2023/01/19 06:10:31;;;;;;;;;;;2.60;99.90;;;;;;8394877;28;20030;-74
2023/01/19 06:14:33;;;;;;;;;;;2.50;99.90;;;;;;8399737;28;19963;-74
2023/01/19 06:18:34;;;;;;;;;;;2.40;99.90;;;;;;8408964;28;19924;-74
2023/01/19 06:22:36;;;;;;;;;;;2.40;99.90;;;;;;8390652;28;19931;-74
2023/01/19 06:26:38;;;;;;;;;;;2.30;99.90;;;;;;8383090;28;19925;-74
2023/01/19 06:30:39;;;;;;;;;;;2.30;99.90;;;;;;8395171;28;19985;-74
2023/01/19 06:34:42;;;;;;;;;;;2.30;99.90;;;;;;8382827;28;19932;-74
2023/01/19 06:38:45;;;;;;;;;;;2.20;99.90;;;;;;8403597;28;19997;-74
2023/01/19 06:42:47;;;;;;;;;;;2.20;99.90;;;;;;8408624;28;19924;-74
2023/01/19 06:46:49;;;;;;;;;;;2.30;99.90;;;;;;8391592;28;19931;-74
2023/01/19 06:50:50;;;;;;;;;;;2.30;99.90;;;;;;8399135;28;19925;-74
2023/01/19 06:54:52;;;;;;;;;;;2.30;99.90;;;;;;8400007;28;19982;-74
2023/01/19 06:58:54;;;;;;;;;;;2.30;99.90;;;;;;8411948;28;19947;-74
2023/01/19 07:02:56;;;;;;;;;;;2.20;99.90;;;;;;8393440;28;20023;-74
2023/01/19 07:06:57;;;;;;;;;;;2.20;99.90;;;;;;8411083;28;20375;-74
2023/01/19 07:11:01;;;;;;;;;;;2.20;99.90;;;;;;8408941;28;19924;-74
2023/01/19 07:15:22;;;;;;;;;;;2.20;99.90;;;;;;8399929;28;20360;-74
2023/01/19 07:19:24;;;;;;;;;;;2.10;99.90;;;;;;8381139;28;19928;-74
2023/01/19 07:23:29;;;;;;;;;;;2.10;99.90;;;;;;8390323;28;19963;-74
2023/01/19 07:27:30;;;;;;;;;;;2.10;99.90;;;;;;8399284;28;19970;-74
2023/01/19 07:31:32;;;;;;;;;;;2.20;99.90;;;;;;8375526;28;19931;-74
2023/01/19 07:35:34;;;;;;;;;;;2.20;99.90;;;;;;8379636;28;19925;-74
2023/01/19 07:39:36;;;;;;;;;;;2.20;99.90;;;;;;8394818;28;19964;-74
2023/01/19 07:43:37;;;;;;;;;;;2.20;99.90;;;;;;8384939;28;19998;-74
2023/01/19 07:47:41;;;;;;;;;;;2.20;99.90;;;;;;8389914;28;19925;-74
2023/01/19 07:51:43;;;;;;;;;;;2.20;99.90;;;;;;8395549;28;19935;-74
2023/01/19 07:55:44;;;;;;;;;;;2.10;99.90;;;;;;8379551;28;19924;-74
2023/01/19 07:59:46;;;;;;;;;;;2.10;99.90;;;;;;8399394;28;19924;-74
2023/01/19 08:03:48;;;;;;;;;;;2.10;99.90;;;;;;8377740;28;19985;-74
2023/01/19 08:07:49;;;;;;;;;;;2.10;99.90;;;;;;8401882;28;20375;-74
2023/01/19 08:11:54;;;;;;;;;;;2.10;99.90;;;;;;8390988;28;19964;-74
2023/01/19 08:15:56;;;;;;;;;;;2.10;99.90;;;;;;8395977;28;19929;-74
2023/01/19 08:19:58;;;;;;;;;;;2.10;99.90;;;;;;8395969;28;19924;-74
2023/01/19 08:24:00;;;;;;;;;;;2.20;99.90;;;;;;8399189;28;19924;-74
2023/01/19 08:28:02;;;;;;;;;;;2.20;99.90;;;;;;8386780;28;19932;-74
2023/01/19 08:32:05;;;;;;;;;;;2.20;99.90;;;;;;8376640;28;19935;-75
2023/01/19 08:36:07;;;;;;;;;;;2.30;99.90;;;;;;8372286;28;19933;-74
2023/01/19 08:40:09;;;;;;;;;;;2.30;99.90;;;;;;8399571;28;20399;-74
2023/01/19 08:44:11;;;;;;;;;;;2.30;99.90;;;;;;8382610;28;19934;-74
2023/01/19 08:48:16;;;;;;;;;;;2.30;99.90;;;;;;8392623;28;19931;-74
2023/01/19 08:52:17;;;;;;;;;;;2.30;99.90;;;;;;8379136;28;19931;-74
2023/01/19 08:56:19;;;;;;;;;;;2.30;99.90;;;;;;8397855;28;19931;-74
2023/01/19 09:00:21;;;;;;;;;;;2.40;99.90;;;;;;8389273;28;19935;-74
2023/01/19 09:04:23;;;;;;;;;;;2.50;99.90;;;;;;8376552;28;20369;-74
2023/01/19 09:08:25;;;;;;;;;;;2.70;99.90;;;;;;8387237;28;19940;-74
2023/01/19 09:12:27;;;;;;;;;;;2.80;99.90;;;;;;8373741;28;21679;-75
2023/01/19 09:16:28;;;;;;;;;;;2.90;99.90;;;;;;8381873;28;19924;-74
2023/01/19 09:20:32;;;;;;;;;;;3.10;99.90;;;;;;8397518;28;19928;-75
2023/01/19 09:24:35;;;;;;;;;;;3.30;99.90;;;;;;8393166;28;20015;-75
2023/01/19 09:28:37;;;;;;;;;;;3.50;99.90;;;;;;8377166;28;19924;-75
2023/01/19 09:32:38;;;;;;;;;;;3.80;99.90;;;;;;8389570;28;19935;-74
2023/01/19 09:36:40;;;;;;;;;;;4.30;99.90;;;;;;8397330;28;19942;-75
2023/01/19 09:40:43;;;;;;;;;;;4.70;99.90;;;;;;8395898;28;19984;-75
2023/01/19 09:44:47;;;;;;;;;;;5.00;99.90;;;;;;8400283;28;19924;-75
2023/01/19 09:48:49;;;;;;;;;;;5.10;99.90;;;;;;8392631;28;20003;-75
2023/01/19 09:52:55;;;;;;;;;;;5.10;99.90;;;;;;8392954;28;19924;-75
2023/01/19 09:56:57;;;;;;;;;;;5.10;99.90;;;;;;8398635;28;19975;-75
2023/01/19 10:01:04;;;;;;;;;;;5.00;99.90;;;;;;8392635;28;20026;-75
2023/01/19 10:05:24;;;;;;;;;;;5.00;99.90;;;;;;8390001;28;20087;-75
2023/01/19 10:09:35;;;;;;;;;;;5.00;99.90;;;;;;8384972;28;19932;-75
2023/01/19 10:13:40;;;;;;;;;;;5.20;99.90;;;;;;8381770;28;19925;-75
2023/01/19 10:17:49;;;;;;;;;;;5.40;99.90;;;;;;8383487;28;19928;-75
2023/01/19 10:21:52;;;;;;;;;;;5.70;99.90;;;;;;8413079;28;20371;-75
2023/01/19 10:25:54;;;;;;;;;;;5.90;99.90;;;;;;8405726;28;20375;-75
2023/01/19 10:29:57;;;;;;;;;;;5.90;99.90;;;;;;8392309;28;19929;-75
2023/01/19 10:33:59;;;;;;;;;;;6.00;99.90;;;;;;8399064;28;19967;-75
2023/01/19 10:38:01;;;;;;;;;;;6.20;99.90;;;;;;8393129;28;19925;-75
2023/01/19 10:42:05;;;;;;;;;;;6.40;99.90;;;;;;8387258;28;19924;-75
2023/01/19 10:46:16;;;;;;;;;;;6.60;99.90;;;;;;8385588;28;19973;-75
2023/01/19 10:50:26;;;;;;;;;;;6.80;99.90;;;;;;8403437;28;19924;-74
2023/01/19 10:54:29;;;;;;;;;;;7.10;99.90;;;;;;8394976;28;20425;-75
2023/01/19 10:58:33;;;;;;;;;;;7.50;99.90;;;;;;8412056;28;19925;-75
2023/01/19 11:02:35;;;;;;;;;;;7.90;99.90;;;;;;8390840;28;19978;-75
2023/01/19 11:06:37;;;;;;;;;;;8.30;99.90;;;;;;8412307;28;19928;-76
2023/01/19 11:10:38;;;;;;;;;;;8.80;99.90;;;;;;8412338;28;19955;-75
2023/01/19 11:14:40;;;;;;;;;;;9.30;99.90;;;;;;8382572;28;20279;-75
2023/01/19 11:18:42;;;;;;;;;;;9.50;99.90;;;;;;8379881;28;20288;-73
2023/01/19 11:22:44;;;;;;;;;;;9.80;99.90;;;;;;8397387;28;19968;-73
2023/01/19 11:26:48;;;;;;;;;;;10.00;99.90;;;;;;8409225;28;19932;-72
2023/01/19 11:31:16;;;;;;;;;;;10.10;99.90;;;;;;8381932;28;19932;-73
2023/01/19 11:35:32;;;;;;;;;;;10.20;99.90;;;;;;8396022;28;19981;-73
2023/01/19 11:39:51;;;;;;;;;;;10.50;99.90;;;;;;8391563;28;19928;-73
2023/01/19 11:44:04;;;;;;;;;;;11.00;99.90;;;;;;8394921;28;20288;-73
2023/01/19 11:48:06;;;;;;;;;;;11.20;99.90;;;;;;8381536;28;19931;-73
2023/01/19 11:52:21;;;;;;;;;;;10.80;99.90;;;;;;8398432;28;19924;-72
2023/01/19 11:56:25;;;;;;;;;;;9.80;99.90;;;;;;8402117;28;19924;-72
2023/01/19 12:00:34;;;;;;;;;;;8.70;99.90;;;;;;8397840;28;19935;-73
2023/01/19 12:04:37;;;;;;;;;;;8.00;99.90;;;;;;8409678;28;20339;-73
2023/01/19 12:08:45;;;;;;;;;;;7.50;99.90;;;;;;8390886;28;20396;-72
2023/01/19 12:12:48;;;;;;;;;;;7.70;99.90;;;;;;8405095;28;20345;-73
2023/01/19 12:16:51;;;;;;;;;;;8.40;99.90;;;;;;8382768;28;19930;-72
2023/01/19 12:20:54;;;;;;;;;;;8.40;99.90;;;;;;8400680;28;19924;-73
2023/01/19 12:25:01;;;;;;;;;;;8.20;99.90;;;;;;8400960;28;20045;-73
2023/01/19 12:29:12;;;;;;;;;;;8.20;99.90;;;;;;8404705;28;20405;-75
2023/01/19 12:33:33;;;;;;;;;;;7.80;99.90;;;;;;8399960;28;19971;-75
2023/01/19 12:37:41;;;;;;;;;;;7.40;99.90;;;;;;8386573;28;20311;-75
2023/01/19 12:41:44;;;;;;;;;;;7.20;99.90;;;;;;8396864;28;19930;-75
2023/01/19 12:45:46;;;;;;;;;;;8.10;99.90;;;;;;8394662;28;19932;-75
2023/01/19 12:49:50;;;;;;;;;;;8.70;99.90;;;;;;8392656;28;22221;-75
2023/01/19 12:53:53;;;;;;;;;;;8.50;99.90;;;;;;8402698;28;20584;-75
2023/01/19 12:57:58;;;;;;;;;;;8.10;99.90;;;;;;8384144;28;20330;-75
2023/01/19 13:02:19;;;;;;;;;;;7.60;99.90;;;;;;8395078;28;20292;-75
2023/01/19 13:06:40;;;;;;;;;;;7.40;99.90;;;;;;8393982;28;19924;-75
2023/01/19 13:10:52;;;;;;;;;;;7.40;99.90;;;;;;8412301;28;19924;-75
2023/01/19 13:15:13;;;;;;;;;;;7.10;99.90;;;;;;8395399;28;20296;-75
2023/01/19 13:19:16;;;;;;;;;;;7.20;99.90;;;;;;8397240;28;19929;-75
2023/01/19 13:23:20;;;;;;;;;;;8.20;99.90;;;;;;8400258;28;20377;-76
2023/01/19 13:27:21;;;;;;;;;;;9.40;99.90;;;;;;8403471;28;19924;-75
2023/01/19 13:31:24;;;;;;;;;;;10.20;99.90;;;;;;8410773;28;19930;-73
2023/01/19 13:35:26;;;;;;;;;;;10.20;99.90;;;;;;8383726;28;19928;-72
2023/01/19 13:39:29;;;;;;;;;;;9.50;99.90;;;;;;8376913;28;19939;-73
2023/01/19 13:43:33;;;;;;;;;;;8.70;99.90;;;;;;8396811;28;19928;-73
2023/01/19 13:47:38;;;;;;;;;;;8.20;99.90;;;;;;8392231;28;19939;-73
2023/01/19 13:51:39;;;;;;;;;;;7.90;99.90;;;;;;8401949;28;19924;-73
2023/01/19 13:55:41;;;;;;;;;;;7.50;99.90;;;;;;8396359;28;20310;-73
2023/01/19 13:59:43;;;;;;;;;;;7.30;99.90;;;;;;8401758;28;20436;-72
2023/01/19 14:03:50;;;;;;;;;;;7.10;99.90;;;;;;8331359;28;1741141;-72
2023/01/19 14:08:24;;;;;;;;;;;7.00;99.90;;;;;;8402536;28;19924;-74
2023/01/19 14:12:26;;;;;;;;;;;7.00;99.90;;;;;;8371583;28;19932;-75
2023/01/19 14:16:28;;;;;;;;;;;7.00;99.90;;;;;;8386462;28;19924;-75
2023/01/19 14:20:31;;;;;;;;;;;6.80;99.90;;;;;;8393507;28;20021;-75
2023/01/19 14:24:33;;;;;;;;;;;6.80;99.90;;;;;;8396594;28;19931;-76
2023/01/19 14:28:38;;;;;;;;;;;6.70;99.90;;;;;;8386355;28;19932;-75
2023/01/19 14:32:44;;;;;;;;;;;6.60;99.90;;;;;;8353785;28;19936;-75
2023/01/19 14:36:49;;;;;;;;;;;6.70;99.90;;;;;;8368852;28;19934;-76
2023/01/19 14:40:50;;;;;;;;;;;6.80;99.90;;;;;;8372007;28;20002;-75
2023/01/19 14:44:53;;;;;;;;;;;7.00;99.90;;;;;;8389554;28;19925;-75
2023/01/19 14:48:59;;;;;;;;;;;7.10;99.90;;;;;;8379185;28;20265;-75
2023/01/19 14:53:03;;;;;;;;;;;7.20;99.90;;;;;;8365572;28;19931;-75
2023/01/19 14:57:09;;;;;;;;;;;7.30;99.90;;;;;;8370114;28;20291;-76
2023/01/19 15:01:11;;;;;;;;;;;7.40;99.90;;;;;;8364446;28;20296;-75
2023/01/19 15:05:13;;;;;;;;;;;7.90;99.90;;;;;;8360484;28;19983;-76
2023/01/19 15:09:14;;;;;;;;;;;8.60;99.90;;;;;;8369417;28;19983;-75
2023/01/19 15:13:23;;;;;;;;;;;9.30;99.90;;;;;;8370054;28;19937;-75
2023/01/19 15:17:25;;;;;;;;;;;9.70;99.90;;;;;;8357857;28;20403;-73
2023/01/19 15:21:26;;;;;;;;;;;10.00;99.90;;;;;;8368735;28;19935;-73
2023/01/19 15:25:30;;;;;;;;;;;10.10;99.90;;;;;;8367971;28;19929;-73
2023/01/19 15:29:32;;;;;;;;;;;9.90;99.90;;;;;;8375951;28;19928;-73
2023/01/19 15:33:34;;;;;;;;;;;9.60;99.90;;;;;;8352863;28;20067;-74
2023/01/19 15:37:36;;;;;;;;;;;9.20;99.90;;;;;;8362606;28;20440;-73
2023/01/19 15:41:38;;;;;;;;;;;9.00;99.90;;;;;;8361318;28;19933;-73
2023/01/19 15:46:00;;;;;;;;;;;8.60;99.90;;;;;;8360547;28;20078;-73
2023/01/19 15:50:01;;;;;;;;;;;8.00;99.90;;;;;;8347512;28;19932;-73
2023/01/19 15:54:03;;;;;;;;;;;7.40;99.90;;;;;;8379240;28;20457;-75
2023/01/19 15:58:05;;;;;;;;;;;7.00;99.90;;;;;;8365402;28;20134;-75
2023/01/19 16:02:08;;;;;;;;;;;6.60;99.90;;;;;;8349298;28;19978;-76
2023/01/19 16:06:09;;;;;;;;;;;6.30;99.90;;;;;;8370064;28;19932;-76
2023/01/19 16:10:12;;;;;;;;;;;6.10;99.90;;;;;;8363764;28;20194;-75
2023/01/19 16:14:14;;;;;;;;;;;5.90;99.90;;;;;;8385604;28;19929;-75
2023/01/19 16:18:18;;;;;;;;;;;5.70;99.90;;;;;;8369302;28;19924;-75
2023/01/19 16:22:19;;;;;;;;;;;5.50;99.90;;;;;;8365516;28;19961;-75
2023/01/19 16:26:26;;;;;;;;;;;5.30;99.90;;;;;;8378580;28;19928;-75
2023/01/19 16:30:27;;;;;;;;;;;5.20;99.90;;;;;;8361842;28;19928;-75
2023/01/19 16:34:29;;;;;;;;;;;5.00;99.90;;;;;;8381196;28;19963;-76
2023/01/19 16:38:31;;;;;;;;;;;4.80;99.90;;;;;;8349328;28;20299;-75
2023/01/19 16:42:33;;;;;;;;;;;4.70;99.90;;;;;;8355757;28;19925;-75
2023/01/19 16:46:35;;;;;;;;;;;4.60;99.90;;;;;;8358956;28;20052;-75
2023/01/19 16:50:37;;;;;;;;;;;4.40;99.90;;;;;;8361893;28;20254;-75
2023/01/19 16:54:42;;;;;;;;;;;4.40;99.90;;;;;;8363826;28;19928;-75
2023/01/19 16:58:44;;;;;;;;;;;4.30;99.90;;;;;;8387209;28;19928;-75
2023/01/19 17:02:45;;;;;;;;;;;4.30;99.90;;;;;;8366067;28;20027;-75
2023/01/19 17:06:47;;;;;;;;;;;4.20;99.90;;;;;;8370400;28;19929;-75
2023/01/19 17:10:49;;;;;;;;;;;4.20;99.90;;;;;;8382295;28;19925;-75
2023/01/19 17:14:51;;;;;;;;;;;4.10;99.90;;;;;;8381949;28;19929;-75
2023/01/19 17:18:54;;;;;;;;;;;4.00;99.90;;;;;;8361784;28;19966;-75
2023/01/19 17:22:56;;;;;;;;;;;3.90;99.90;;;;;;8351746;28;19933;-76
2023/01/19 17:26:58;;;;;;;;;;;3.90;99.90;;;;;;8361200;28;20308;-75
2023/01/19 17:31:04;;;;;;;;;;;3.80;99.90;;;;;;8371382;28;20503;-75
2023/01/19 17:35:06;;;;;;;;;;;3.70;99.90;;;;;;8371200;28;19932;-75
2023/01/19 17:39:10;;;;;;;;;;;3.60;99.90;;;;;;8367769;28;19935;-75
2023/01/19 17:43:11;;;;;;;;;;;3.50;99.90;;;;;;8376354;28;19930;-75
2023/01/19 17:47:13;;;;;;;;;;;3.30;99.90;;;;;;8366666;28;19934;-75
2023/01/19 17:51:15;;;;;;;;;;;3.00;99.90;;;;;;8367843;28;19932;-75
2023/01/19 17:55:17;;;;;;;;;;;2.80;99.90;;;;;;8373555;28;19955;-75
2023/01/19 17:59:18;;;;;;;;;;;2.70;99.90;;;;;;8375283;28;19971;-75
2023/01/19 18:03:20;;;;;;;;;;;2.60;99.90;;;;;;8372980;28;20011;-75
2023/01/19 18:07:24;;;;;;;;;;;2.60;99.90;;;;;;8331797;28;19943;-75
2023/01/19 18:11:26;;;;;;;;;;;2.70;99.90;;;;;;8354614;28;20264;-75
2023/01/19 18:15:28;;;;;;;;;;;2.80;99.90;;;;;;8331425;28;19960;-75
2023/01/19 18:19:29;;;;;;;;;;;2.80;99.90;;;;;;8340563;28;19975;-75
2023/01/19 18:23:31;;;;;;;;;;;2.80;99.90;;;;;;8351338;28;19925;-75
2023/01/19 18:27:32;;;;;;;;;;;2.90;99.90;;;;;;8323590;28;20062;-75
2023/01/19 18:31:34;;;;;;;;;;;2.90;99.90;;;;;;8333340;28;20019;-75
2023/01/19 18:35:37;;;;;;;;;;;2.90;99.90;;;;;;8339558;28;19936;-75
2023/01/19 18:39:39;;;;;;;;;;;2.80;99.90;;;;;;8339908;28;19935;-75
2023/01/19 18:43:41;;;;;;;;;;;2.80;99.90;;;;;;8328939;28;19932;-75
2023/01/19 18:47:42;;;;;;;;;;;2.80;99.90;;;;;;8337331;28;20031;-75
2023/01/19 18:51:44;;;;;;;;;;;2.80;99.90;;;;;;8348367;28;19925;-75
2023/01/19 18:55:50;;;;;;;;;;;2.90;99.90;;;;;;8340377;28;19971;-75
2023/01/19 18:59:52;;;;;;;;;;;2.90;99.90;;;;;;8333933;28;19928;-75
2023/01/19 19:03:55;;;;;;;;;;;2.90;99.90;;;;;;8341998;28;19924;-75
2023/01/19 19:07:56;;;;;;;;;;;2.90;99.90;;;;;;8382850;28;19963;-76
2023/01/19 19:11:58;;;;;;;;;;;2.80;99.90;;;;;;8368646;28;20049;-75
2023/01/19 19:16:03;;;;;;;;;;;2.80;99.90;;;;;;8368850;28;19980;-75
2023/01/19 19:20:05;;;;;;;;;;;2.80;99.90;;;;;;8370081;28;20015;-75
2023/01/19 19:24:07;;;;;;;;;;;2.70;99.90;;;;;;8379983;28;19951;-75
2023/01/19 19:28:09;;;;;;;;;;;2.70;99.90;;;;;;8349550;28;20014;-75
2023/01/19 19:32:11;;;;;;;;;;;2.70;99.90;;;;;;8355489;28;19928;-76
2023/01/19 19:36:13;;;;;;;;;;;2.70;99.90;;;;;;8369293;28;20336;-75
2023/01/19 19:40:14;;;;;;;;;;;2.80;99.90;;;;;;8366695;28;19929;-75
2023/01/19 19:44:18;;;;;;;;;;;2.80;99.90;;;;;;8368794;28;20308;-75
2023/01/19 19:48:19;;;;;;;;;;;2.90;99.90;;;;;;8382681;28;20034;-76
2023/01/19 19:52:21;;;;;;;;;;;2.90;99.90;;;;;;8371139;28;19928;-76
2023/01/19 19:56:24;;;;;;;;;;;2.90;99.90;;;;;;8374048;28;19928;-75
2023/01/19 20:00:26;;;;;;;;;;;2.80;99.90;;;;;;8363684;28;20272;-75
2023/01/19 20:04:29;;;;;;;;;;;2.80;99.90;;;;;;8348572;28;19932;-75
2023/01/19 20:08:31;;;;;;;;;;;2.70;99.90;;;;;;8368500;28;20019;-75
2023/01/19 20:12:33;;;;;;;;;;;2.70;99.90;;;;;;8349588;28;19931;-75
2023/01/19 20:16:35;;;;;;;;;;;2.70;99.90;;;;;;8370643;28;19924;-75
2023/01/19 20:20:37;;;;;;;;;;;2.70;99.90;;;;;;8364564;28;19925;-75
2023/01/19 20:24:38;;;;;;;;;;;2.70;99.90;;;;;;8362432;28;20027;-76
2023/01/19 20:28:40;;;;;;;;;;;2.70;99.90;;;;;;8379439;28;19939;-75
2023/01/19 20:32:41;;;;;;;;;;;2.80;99.90;;;;;;8381336;28;19929;-75
2023/01/19 20:36:48;;;;;;;;;;;2.80;99.90;;;;;;8369167;28;19967;-75
2023/01/19 20:40:49;;;;;;;;;;;2.80;99.90;;;;;;8369256;28;19947;-75
2023/01/19 20:44:51;;;;;;;;;;;2.80;99.90;;;;;;8386526;28;20027;-75
2023/01/19 20:48:53;;;;;;;;;;;2.80;99.90;;;;;;8367505;28;19931;-75
2023/01/19 20:52:55;;;;;;;;;;;2.80;99.90;;;;;;8366179;28;19935;-76
2023/01/19 20:56:56;;;;;;;;;;;2.80;99.90;;;;;;8369393;28;19954;-75
2023/01/19 21:00:58;;;;;;;;;;;2.80;99.90;;;;;;8361854;28;19929;-75
2023/01/19 21:05:00;;;;;;;;;;;2.80;99.90;;;;;;8361356;28;20359;-75
2023/01/19 21:09:02;;;;;;;;;;;2.80;99.90;;;;;;8364801;28;19946;-75
2023/01/19 21:13:03;;;;;;;;;;;2.90;99.90;;;;;;8359376;28;19936;-75
2023/01/19 21:17:05;;;;;;;;;;;2.90;99.90;;;;;;8365803;28;20331;-75
2023/01/19 21:21:07;;;;;;;;;;;2.90;99.90;;;;;;8364831;28;19932;-75
2023/01/19 21:25:18;;;;;;;;;;;2.90;99.90;;;;;;8362422;28;20373;-75
2023/01/19 21:29:19;;;;;;;;;;;2.90;99.90;;;;;;8385996;28;19932;-75
2023/01/19 21:33:22;;;;;;;;;;;2.80;99.90;;;;;;8369269;28;19941;-75
2023/01/19 21:37:23;;;;;;;;;;;2.70;99.90;;;;;;8355686;28;19925;-75
2023/01/19 21:41:25;;;;;;;;;;;2.60;99.90;;;;;;8375418;28;19931;-75
2023/01/19 21:45:27;;;;;;;;;;;2.40;99.90;;;;;;8358165;28;19931;-75
2023/01/19 21:49:29;;;;;;;;;;;2.30;99.90;;;;;;8363373;28;20402;-75
2023/01/19 21:53:31;;;;;;;;;;;2.30;99.90;;;;;;8374972;28;19935;-75
2023/01/19 21:57:32;;;;;;;;;;;2.30;99.90;;;;;;8388233;28;20015;-75
2023/01/19 22:01:34;;;;;;;;;;;2.20;99.90;;;;;;8373975;28;20368;-75
2023/01/19 22:05:36;;;;;;;;;;;2.20;99.90;;;;;;8394828;28;20261;-74
2023/01/19 22:09:38;;;;;;;;;;;2.10;99.90;;;;;;8394186;28;19935;-75
2023/01/19 22:13:39;;;;;;;;;;;2.10;99.90;;;;;;8392100;28;20372;-76
2023/01/19 22:17:41;;;;;;;;;;;2.00;99.90;;;;;;8384263;28;19925;-75
2023/01/19 22:21:43;;;;;;;;;;;2.00;99.90;;;;;;8394274;28;19924;-75
2023/01/19 22:25:44;;;;;;;;;;;2.00;99.90;;;;;;8397339;28;20407;-75
2023/01/19 22:29:46;;;;;;;;;;;2.00;99.90;;;;;;8391205;28;19925;-75
2023/01/19 22:33:48;;;;;;;;;;;2.00;99.90;;;;;;8391502;28;19999;-75
2023/01/19 22:37:50;;;;;;;;;;;2.10;99.90;;;;;;8391692;28;19936;-75
2023/01/19 22:41:52;;;;;;;;;;;2.10;99.90;;;;;;8398666;28;19971;-75
2023/01/19 22:45:54;;;;;;;;;;;2.10;99.90;;;;;;8371659;28;19928;-75
2023/01/19 22:49:56;;;;;;;;;;;2.10;99.90;;;;;;8398136;28;19947;-75
2023/01/19 22:53:58;;;;;;;;;;;2.10;99.90;;;;;;8397638;28;20695;-75
2023/01/19 22:57:59;;;;;;;;;;;2.10;99.90;;;;;;8412420;28;19967;-75
2023/01/19 23:02:01;;;;;;;;;;;2.10;99.90;;;;;;8368195;28;20004;-75
2023/01/19 23:06:04;;;;;;;;;;;2.00;99.90;;;;;;8369177;28;19928;-75
2023/01/19 23:25:16;;;;;;;;;;;1.50;99.90;;;;;;8392397;28;19919;-75
2023/01/19 23:29:18;;;;;;;;;;;1.60;99.90;;;;;;8380099;28;19968;-75
2023/01/19 23:33:20;;;;;;;;;;;1.50;99.90;;;;;;8398024;28;19974;-75
2023/01/19 23:37:21;;;;;;;;;;;1.50;99.90;;;;;;8401384;28;20390;-75
2023/01/19 23:41:24;;;;;;;;;;;1.50;99.90;;;;;;8390281;28;19941;-76
2023/01/19 23:45:26;;;;;;;;;;;1.50;99.90;;;;;;8394502;28;19960;-75
2023/01/19 23:49:49;;;;;;;;;;;1.40;99.90;;;;;;8400865;28;19931;-75
2023/01/19 23:53:51;;;;;;;;;;;1.30;99.90;;;;;;8386217;28;20368;-75
2023/01/19 23:57:52;;;;;;;;;;;1.30;99.90;;;;;;8395092;28;19933;-75
